sensor_id;sensor_type;location;lat;lon;timestamp;temperature;humidity
33255;DHT22;19623;52.482;9.762;2022-09-09T00:03:51;14.00;99.90
33255;DHT22;19623;52.482;9.762;2022-09-09T00:06:24;14.00;99.90
33255;DHT22;19623;52.482;9.762;2022-09-09T00:09:04;14.00;99.90
33255;DHT22;19623;52.482;9.762;2022-09-09T00:11:43;14.00;99.90
33255;DHT22;19623;52.482;9.762;2022-09-09T00:17:18;13.90;99.90
33255;DHT22;19623;52.482;9.762;2022-09-09T00:22:23;13.80;99.90
33255;DHT22;19623;52.482;9.762;2022-09-09T00:24:54;13.80;99.90
33255;DHT22;19623;52.482;9.762;2022-09-09T00:27:48;13.80;99.90
33255;DHT22;19623;52.482;9.762;2022-09-09T00:30:18;13.80;99.90
33255;DHT22;19623;52.482;9.762;2022-09-09T00:32:49;13.80;99.90
33255;DHT22;19623;52.482;9.762;2022-09-09T00:35:28;13.80;99.90
33255;DHT22;19623;52.482;9.762;2022-09-09T00:37:58;13.80;99.90
33255;DHT22;19623;52.482;9.762;2022-09-09T00:40:35;13.80;99.90
33255;DHT22;19623;52.482;9.762;2022-09-09T00:43:26;13.80;99.90
33255;DHT22;19623;52.482;9.762;2022-09-09T00:46:34;13.80;99.90
33255;DHT22;19623;52.482;9.762;2022-09-09T00:52:21;13.80;99.90
33255;DHT22;19623;52.482;9.762;2022-09-09T00:57:30;13.70;99.90
33255;DHT22;19623;52.482;9.762;2022-09-09T01:07:51;13.70;99.90
33255;DHT22;19623;52.482;9.762;2022-09-09T01:13:26;13.60;99.90
33255;DHT22;19623;52.482;9.762;2022-09-09T01:15:53;13.50;99.90
33255;DHT22;19623;52.482;9.762;2022-09-09T01:18:21;13.50;99.90
33255;DHT22;19623;52.482;9.762;2022-09-09T01:21:05;13.50;99.90
33255;DHT22;19623;52.482;9.762;2022-09-09T01:26:36;13.40;99.90
33255;DHT22;19623;52.482;9.762;2022-09-09T01:29:10;13.40;99.90
33255;DHT22;19623;52.482;9.762;2022-09-09T01:31:39;13.50;99.90
33255;DHT22;19623;52.482;9.762;2022-09-09T01:34:15;13.50;99.90
33255;DHT22;19623;52.482;9.762;2022-09-09T01:36:51;13.50;99.90
33255;DHT22;19623;52.482;9.762;2022-09-09T01:39:19;13.40;99.90
33255;DHT22;19623;52.482;9.762;2022-09-09T01:41:45;13.40;99.90
33255;DHT22;19623;52.482;9.762;2022-09-09T01:44:11;13.40;99.90
33255;DHT22;19623;52.482;9.762;2022-09-09T01:46:37;13.40;99.90
33255;DHT22;19623;52.482;9.762;2022-09-09T01:49:05;13.40;99.90
33255;DHT22;19623;52.482;9.762;2022-09-09T01:51:32;13.40;99.90
33255;DHT22;19623;52.482;9.762;2022-09-09T01:53:58;13.40;99.90
33255;DHT22;19623;52.482;9.762;2022-09-09T01:56:40;13.40;99.90
33255;DHT22;19623;52.482;9.762;2022-09-09T02:01:57;13.40;99.90
33255;DHT22;19623;52.482;9.762;2022-09-09T02:05:04;13.50;99.90
33255;DHT22;19623;52.482;9.762;2022-09-09T02:07:42;13.60;99.90
33255;DHT22;19623;52.482;9.762;2022-09-09T02:10:20;13.70;99.90
33255;DHT22;19623;52.482;9.762;2022-09-09T02:12:50;13.80;99.90
33255;DHT22;19623;52.482;9.762;2022-09-09T02:16:04;14.00;99.90
33255;DHT22;19623;52.482;9.762;2022-09-09T02:18:12;14.00;99.90
33255;DHT22;19623;52.482;9.762;2022-09-09T02:20:40;13.90;99.90
33255;DHT22;19623;52.482;9.762;2022-09-09T02:23:08;13.90;99.90
33255;DHT22;19623;52.482;9.762;2022-09-09T02:25:36;14.00;99.90
33255;DHT22;19623;52.482;9.762;2022-09-09T02:28:06;14.00;99.90
33255;DHT22;19623;52.482;9.762;2022-09-09T02:30:33;14.10;99.90
33255;DHT22;19623;52.482;9.762;2022-09-09T02:33:02;14.10;99.90
33255;DHT22;19623;52.482;9.762;2022-09-09T02:35:30;14.10;99.90
33255;DHT22;19623;52.482;9.762;2022-09-09T02:37:59;14.10;99.90
33255;DHT22;19623;52.482;9.762;2022-09-09T02:40:27;14.10;99.90
33255;DHT22;19623;52.482;9.762;2022-09-09T02:42:54;14.10;99.90
33255;DHT22;19623;52.482;9.762;2022-09-09T02:45:24;14.10;99.90
33255;DHT22;19623;52.482;9.762;2022-09-09T02:48:26;14.20;99.90
33255;DHT22;19623;52.482;9.762;2022-09-09T02:51:35;14.20;99.90
33255;DHT22;19623;52.482;9.762;2022-09-09T02:54:28;14.20;99.90
33255;DHT22;19623;52.482;9.762;2022-09-09T02:59:38;14.10;99.90
33255;DHT22;19623;52.482;9.762;2022-09-09T03:02:04;14.20;99.90
33255;DHT22;19623;52.482;9.762;2022-09-09T03:04:30;14.10;99.90
33255;DHT22;19623;52.482;9.762;2022-09-09T03:06:57;14.10;99.90
33255;DHT22;19623;52.482;9.762;2022-09-09T03:09:23;14.10;99.90
33255;DHT22;19623;52.482;9.762;2022-09-09T03:11:49;14.00;99.90
33255;DHT22;19623;52.482;9.762;2022-09-09T03:14:15;14.10;99.90
33255;DHT22;19623;52.482;9.762;2022-09-09T03:16:42;14.10;99.90
33255;DHT22;19623;52.482;9.762;2022-09-09T03:19:11;14.00;99.90
33255;DHT22;19623;52.482;9.762;2022-09-09T03:21:37;14.00;99.90
33255;DHT22;19623;52.482;9.762;2022-09-09T03:24:03;14.00;99.90
33255;DHT22;19623;52.482;9.762;2022-09-09T03:26:29;14.00;99.90
33255;DHT22;19623;52.482;9.762;2022-09-09T03:28:56;14.00;99.90
33255;DHT22;19623;52.482;9.762;2022-09-09T03:31:21;14.10;99.90
33255;DHT22;19623;52.482;9.762;2022-09-09T03:33:47;14.10;99.90
33255;DHT22;19623;52.482;9.762;2022-09-09T03:36:14;14.10;99.90
33255;DHT22;19623;52.482;9.762;2022-09-09T03:38:39;14.10;99.90
33255;DHT22;19623;52.482;9.762;2022-09-09T03:41:05;14.00;99.90
33255;DHT22;19623;52.482;9.762;2022-09-09T03:43:31;14.00;99.90
33255;DHT22;19623;52.482;9.762;2022-09-09T03:45:56;14.00;99.90
33255;DHT22;19623;52.482;9.762;2022-09-09T03:48:23;14.00;99.90
33255;DHT22;19623;52.482;9.762;2022-09-09T03:50:51;13.90;99.90
33255;DHT22;19623;52.482;9.762;2022-09-09T03:53:19;13.90;99.90
33255;DHT22;19623;52.482;9.762;2022-09-09T03:55:50;13.90;99.90
33255;DHT22;19623;52.482;9.762;2022-09-09T03:58:20;13.80;99.90
33255;DHT22;19623;52.482;9.762;2022-09-09T04:01:16;13.80;99.90
33255;DHT22;19623;52.482;9.762;2022-09-09T04:03:43;13.80;99.90
33255;DHT22;19623;52.482;9.762;2022-09-09T04:06:11;13.70;99.90
33255;DHT22;19623;52.482;9.762;2022-09-09T04:08:38;13.80;99.90
33255;DHT22;19623;52.482;9.762;2022-09-09T04:11:05;13.70;99.90
33255;DHT22;19623;52.482;9.762;2022-09-09T04:13:32;13.70;99.90
33255;DHT22;19623;52.482;9.762;2022-09-09T04:16:01;13.80;99.90
33255;DHT22;19623;52.482;9.762;2022-09-09T04:18:27;13.80;99.90
33255;DHT22;19623;52.482;9.762;2022-09-09T04:20:56;13.70;99.90
33255;DHT22;19623;52.482;9.762;2022-09-09T04:23:23;13.70;99.90
33255;DHT22;19623;52.482;9.762;2022-09-09T04:25:51;13.80;99.90
33255;DHT22;19623;52.482;9.762;2022-09-09T04:28:18;13.80;99.90
33255;DHT22;19623;52.482;9.762;2022-09-09T04:30:44;13.80;99.90
33255;DHT22;19623;52.482;9.762;2022-09-09T04:33:11;13.80;99.90
33255;DHT22;19623;52.482;9.762;2022-09-09T04:35:38;13.80;99.90
33255;DHT22;19623;52.482;9.762;2022-09-09T04:38:05;13.80;99.90
33255;DHT22;19623;52.482;9.762;2022-09-09T04:40:35;13.80;99.90
33255;DHT22;19623;52.482;9.762;2022-09-09T04:43:02;13.70;99.90
33255;DHT22;19623;52.482;9.762;2022-09-09T04:45:30;13.70;99.90
33255;DHT22;19623;52.482;9.762;2022-09-09T04:47:56;13.70;99.90
33255;DHT22;19623;52.482;9.762;2022-09-09T04:50:22;13.70;99.90
33255;DHT22;19623;52.482;9.762;2022-09-09T04:52:47;13.70;99.90
33255;DHT22;19623;52.482;9.762;2022-09-09T04:55:14;13.70;99.90
33255;DHT22;19623;52.482;9.762;2022-09-09T04:57:40;13.70;99.90
33255;DHT22;19623;52.482;9.762;2022-09-09T05:00:06;13.80;99.90
33255;DHT22;19623;52.482;9.762;2022-09-09T05:02:32;13.80;99.90
33255;DHT22;19623;52.482;9.762;2022-09-09T05:04:58;13.90;99.90
33255;DHT22;19623;52.482;9.762;2022-09-09T05:07:24;14.00;99.90
33255;DHT22;19623;52.482;9.762;2022-09-09T05:09:52;14.00;99.90
33255;DHT22;19623;52.482;9.762;2022-09-09T05:12:18;14.00;99.90
33255;DHT22;19623;52.482;9.762;2022-09-09T05:14:44;14.00;99.90
33255;DHT22;19623;52.482;9.762;2022-09-09T05:17:10;14.10;99.90
33255;DHT22;19623;52.482;9.762;2022-09-09T05:19:36;14.10;99.90
33255;DHT22;19623;52.482;9.762;2022-09-09T05:22:02;14.20;99.90
33255;DHT22;19623;52.482;9.762;2022-09-09T05:24:28;14.20;99.90
33255;DHT22;19623;52.482;9.762;2022-09-09T05:26:53;14.20;99.90
33255;DHT22;19623;52.482;9.762;2022-09-09T05:29:19;14.20;99.90
33255;DHT22;19623;52.482;9.762;2022-09-09T05:31:45;14.20;99.90
33255;DHT22;19623;52.482;9.762;2022-09-09T05:34:12;14.20;99.90
33255;DHT22;19623;52.482;9.762;2022-09-09T05:36:38;14.20;99.90
33255;DHT22;19623;52.482;9.762;2022-09-09T05:39:04;14.20;99.90
33255;DHT22;19623;52.482;9.762;2022-09-09T05:41:29;14.30;99.90
33255;DHT22;19623;52.482;9.762;2022-09-09T05:43:57;14.30;99.90
33255;DHT22;19623;52.482;9.762;2022-09-09T05:46:24;14.40;99.90
33255;DHT22;19623;52.482;9.762;2022-09-09T05:48:51;14.40;99.90
33255;DHT22;19623;52.482;9.762;2022-09-09T05:51:22;14.50;99.90
33255;DHT22;19623;52.482;9.762;2022-09-09T05:53:48;14.50;99.90
33255;DHT22;19623;52.482;9.762;2022-09-09T05:56:16;14.50;99.90
33255;DHT22;19623;52.482;9.762;2022-09-09T05:58:43;14.50;99.90
33255;DHT22;19623;52.482;9.762;2022-09-09T06:01:26;14.50;99.90
33255;DHT22;19623;52.482;9.762;2022-09-09T06:03:52;14.60;99.90
33255;DHT22;19623;52.482;9.762;2022-09-09T06:06:20;14.70;99.90
33255;DHT22;19623;52.482;9.762;2022-09-09T06:08:47;14.70;99.90
33255;DHT22;19623;52.482;9.762;2022-09-09T06:11:18;14.80;99.90
33255;DHT22;19623;52.482;9.762;2022-09-09T06:13:44;14.90;99.90
33255;DHT22;19623;52.482;9.762;2022-09-09T06:16:11;15.00;99.90
33255;DHT22;19623;52.482;9.762;2022-09-09T06:18:40;15.10;99.90
33255;DHT22;19623;52.482;9.762;2022-09-09T06:21:11;15.20;99.90
33255;DHT22;19623;52.482;9.762;2022-09-09T06:23:39;15.40;99.90
33255;DHT22;19623;52.482;9.762;2022-09-09T06:26:14;15.30;99.90
33255;DHT22;19623;52.482;9.762;2022-09-09T06:28:40;15.30;99.90
33255;DHT22;19623;52.482;9.762;2022-09-09T06:31:09;15.20;99.90
33255;DHT22;19623;52.482;9.762;2022-09-09T06:33:41;15.10;99.90
33255;DHT22;19623;52.482;9.762;2022-09-09T06:36:16;15.10;99.90
33255;DHT22;19623;52.482;9.762;2022-09-09T06:38:43;15.10;99.90
33255;DHT22;19623;52.482;9.762;2022-09-09T06:41:10;15.20;99.90
33255;DHT22;19623;52.482;9.762;2022-09-09T06:43:37;15.30;99.90
33255;DHT22;19623;52.482;9.762;2022-09-09T06:46:15;15.50;99.90
33255;DHT22;19623;52.482;9.762;2022-09-09T06:48:43;15.60;99.90
33255;DHT22;19623;52.482;9.762;2022-09-09T06:51:17;15.70;99.90
33255;DHT22;19623;52.482;9.762;2022-09-09T06:53:45;15.70;99.90
33255;DHT22;19623;52.482;9.762;2022-09-09T06:58:40;15.70;99.90
33255;DHT22;19623;52.482;9.762;2022-09-09T07:01:11;15.60;99.90
33255;DHT22;19623;52.482;9.762;2022-09-09T07:03:38;15.70;99.90
33255;DHT22;19623;52.482;9.762;2022-09-09T07:06:05;15.70;99.90
33255;DHT22;19623;52.482;9.762;2022-09-09T07:08:31;15.70;99.90
33255;DHT22;19623;52.482;9.762;2022-09-09T07:11:04;15.80;99.90
33255;DHT22;19623;52.482;9.762;2022-09-09T07:13:30;15.80;99.90
33255;DHT22;19623;52.482;9.762;2022-09-09T07:16:10;16.00;99.90
33255;DHT22;19623;52.482;9.762;2022-09-09T07:18:36;16.30;99.90
33255;DHT22;19623;52.482;9.762;2022-09-09T07:21:03;16.40;99.90
33255;DHT22;19623;52.482;9.762;2022-09-09T07:23:29;16.70;99.90
33255;DHT22;19623;52.482;9.762;2022-09-09T07:25:56;16.70;99.90
33255;DHT22;19623;52.482;9.762;2022-09-09T07:28:22;16.90;99.90
33255;DHT22;19623;52.482;9.762;2022-09-09T07:30:56;16.90;99.90
33255;DHT22;19623;52.482;9.762;2022-09-09T07:33:23;17.00;99.90
33255;DHT22;19623;52.482;9.762;2022-09-09T07:35:50;17.00;99.90
33255;DHT22;19623;52.482;9.762;2022-09-09T07:38:16;17.20;99.90
33255;DHT22;19623;52.482;9.762;2022-09-09T07:40:42;17.20;99.90
33255;DHT22;19623;52.482;9.762;2022-09-09T07:43:08;17.30;99.90
33255;DHT22;19623;52.482;9.762;2022-09-09T07:45:34;17.40;99.90
33255;DHT22;19623;52.482;9.762;2022-09-09T07:48:01;17.50;99.90
33255;DHT22;19623;52.482;9.762;2022-09-09T07:50:27;17.60;99.90
33255;DHT22;19623;52.482;9.762;2022-09-09T07:52:53;17.60;99.90
33255;DHT22;19623;52.482;9.762;2022-09-09T07:55:22;17.80;99.90
33255;DHT22;19623;52.482;9.762;2022-09-09T07:57:53;17.80;99.90
33255;DHT22;19623;52.482;9.762;2022-09-09T08:00:19;17.80;99.90
33255;DHT22;19623;52.482;9.762;2022-09-09T08:02:47;17.90;99.90
33255;DHT22;19623;52.482;9.762;2022-09-09T08:05:13;17.90;99.90
33255;DHT22;19623;52.482;9.762;2022-09-09T08:07:40;18.00;99.90
33255;DHT22;19623;52.482;9.762;2022-09-09T08:10:06;18.00;99.90
33255;DHT22;19623;52.482;9.762;2022-09-09T08:12:32;18.00;99.90
33255;DHT22;19623;52.482;9.762;2022-09-09T08:14:58;18.20;99.90
33255;DHT22;19623;52.482;9.762;2022-09-09T08:17:24;18.20;99.90
33255;DHT22;19623;52.482;9.762;2022-09-09T08:19:50;18.20;99.90
33255;DHT22;19623;52.482;9.762;2022-09-09T08:22:15;18.30;99.90
33255;DHT22;19623;52.482;9.762;2022-09-09T08:24:41;18.30;99.90
33255;DHT22;19623;52.482;9.762;2022-09-09T08:27:07;18.30;99.90
33255;DHT22;19623;52.482;9.762;2022-09-09T08:29:35;18.40;99.90
33255;DHT22;19623;52.482;9.762;2022-09-09T08:32:01;18.50;99.90
33255;DHT22;19623;52.482;9.762;2022-09-09T08:34:27;18.50;99.90
33255;DHT22;19623;52.482;9.762;2022-09-09T08:36:54;18.60;99.90
33255;DHT22;19623;52.482;9.762;2022-09-09T08:39:21;18.70;99.90
33255;DHT22;19623;52.482;9.762;2022-09-09T08:50:27;19.40;99.90
33255;DHT22;19623;52.482;9.762;2022-09-09T08:53:10;19.50;99.90
33255;DHT22;19623;52.482;9.762;2022-09-09T08:55:48;19.50;99.90
33255;DHT22;19623;52.482;9.762;2022-09-09T08:58:32;19.40;99.90
33255;DHT22;19623;52.482;9.762;2022-09-09T09:04:00;19.40;99.90
33255;DHT22;19623;52.482;9.762;2022-09-09T09:11:39;19.50;99.90
33255;DHT22;19623;52.482;9.762;2022-09-09T09:14:18;19.50;99.90
33255;DHT22;19623;52.482;9.762;2022-09-09T09:19:43;19.60;99.90
33255;DHT22;19623;52.482;9.762;2022-09-09T09:22:20;19.70;99.90
33255;DHT22;19623;52.482;9.762;2022-09-09T09:24:54;19.90;99.90
33255;DHT22;19623;52.482;9.762;2022-09-09T09:27:35;20.00;99.90
33255;DHT22;19623;52.482;9.762;2022-09-09T09:30:19;20.10;99.90
33255;DHT22;19623;52.482;9.762;2022-09-09T09:33:01;20.10;99.90
33255;DHT22;19623;52.482;9.762;2022-09-09T09:35:28;20.00;99.90
33255;DHT22;19623;52.482;9.762;2022-09-09T09:37:54;20.10;99.90
33255;DHT22;19623;52.482;9.762;2022-09-09T09:40:21;20.20;99.90
33255;DHT22;19623;52.482;9.762;2022-09-09T09:42:54;20.20;99.90
33255;DHT22;19623;52.482;9.762;2022-09-09T09:45:40;20.10;99.90
33255;DHT22;19623;52.482;9.762;2022-09-09T09:48:10;20.20;99.90
33255;DHT22;19623;52.482;9.762;2022-09-09T09:50:47;20.20;99.90
33255;DHT22;19623;52.482;9.762;2022-09-09T09:53:27;20.20;99.90
33255;DHT22;19623;52.482;9.762;2022-09-09T09:56:01;20.30;99.90
33255;DHT22;19623;52.482;9.762;2022-09-09T09:58:31;20.40;99.90
33255;DHT22;19623;52.482;9.762;2022-09-09T10:01:00;20.50;99.90
33255;DHT22;19623;52.482;9.762;2022-09-09T10:03:33;20.70;99.90
33255;DHT22;19623;52.482;9.762;2022-09-09T10:06:06;20.80;99.90
33255;DHT22;19623;52.482;9.762;2022-09-09T10:08:43;21.10;99.90
33255;DHT22;19623;52.482;9.762;2022-09-09T10:19:27;21.30;99.90
33255;DHT22;19623;52.482;9.762;2022-09-09T10:30:19;20.50;99.90
33255;DHT22;19623;52.482;9.762;2022-09-09T10:32:54;20.50;99.90
33255;DHT22;19623;52.482;9.762;2022-09-09T10:35:37;20.60;99.90
33255;DHT22;19623;52.482;9.762;2022-09-09T10:49:08;20.50;99.90
33255;DHT22;19623;52.482;9.762;2022-09-09T10:59:57;21.10;99.90
33255;DHT22;19623;52.482;9.762;2022-09-09T11:02:30;21.30;99.90
33255;DHT22;19623;52.482;9.762;2022-09-09T11:05:20;21.40;99.90
33255;DHT22;19623;52.482;9.762;2022-09-09T11:07:58;21.50;99.90
33255;DHT22;19623;52.482;9.762;2022-09-09T11:13:04;21.50;99.90
33255;DHT22;19623;52.482;9.762;2022-09-09T11:15:44;21.50;99.90
33255;DHT22;19623;52.482;9.762;2022-09-09T11:18:15;21.40;99.90
33255;DHT22;19623;52.482;9.762;2022-09-09T11:20:44;21.20;99.90
33255;DHT22;19623;52.482;9.762;2022-09-09T11:23:18;21.00;99.90
33255;DHT22;19623;52.482;9.762;2022-09-09T11:25:52;20.90;99.90
33255;DHT22;19623;52.482;9.762;2022-09-09T11:28:29;20.80;99.90
33255;DHT22;19623;52.482;9.762;2022-09-09T11:34:11;20.40;99.90
33255;DHT22;19623;52.482;9.762;2022-09-09T11:44:33;20.00;99.90
33255;DHT22;19623;52.482;9.762;2022-09-09T11:46:59;20.00;99.90
33255;DHT22;19623;52.482;9.762;2022-09-09T11:51:50;19.90;99.90
33255;DHT22;19623;52.482;9.762;2022-09-09T11:54:32;19.90;99.90
33255;DHT22;19623;52.482;9.762;2022-09-09T11:56:58;19.90;99.90
33255;DHT22;19623;52.482;9.762;2022-09-09T11:59:29;19.80;99.90
33255;DHT22;19623;52.482;9.762;2022-09-09T12:02:16;19.90;99.90
33255;DHT22;19623;52.482;9.762;2022-09-09T12:07:38;19.70;99.90
33255;DHT22;19623;52.482;9.762;2022-09-09T12:10:22;19.70;99.90
33255;DHT22;19623;52.482;9.762;2022-09-09T12:12:50;19.70;99.90
33255;DHT22;19623;52.482;9.762;2022-09-09T12:15:19;19.60;99.90
33255;DHT22;19623;52.482;9.762;2022-09-09T12:17:57;19.60;99.90
33255;DHT22;19623;52.482;9.762;2022-09-09T12:23:18;19.50;99.90
33255;DHT22;19623;52.482;9.762;2022-09-09T12:28:22;19.30;99.90
33255;DHT22;19623;52.482;9.762;2022-09-09T12:33:24;19.10;99.90
33255;DHT22;19623;52.482;9.762;2022-09-09T12:35:59;19.00;99.90
33255;DHT22;19623;52.482;9.762;2022-09-09T12:38:36;19.00;99.90
33255;DHT22;19623;52.482;9.762;2022-09-09T12:41:03;19.10;99.90
33255;DHT22;19623;52.482;9.762;2022-09-09T12:43:29;19.30;99.90
33255;DHT22;19623;52.482;9.762;2022-09-09T12:46:01;19.50;99.90
33255;DHT22;19623;52.482;9.762;2022-09-09T12:48:38;19.80;99.90
33255;DHT22;19623;52.482;9.762;2022-09-09T12:51:28;20.10;99.90
33255;DHT22;19623;52.482;9.762;2022-09-09T12:53:55;20.40;99.90
33255;DHT22;19623;52.482;9.762;2022-09-09T12:56:26;20.50;99.90
33255;DHT22;19623;52.482;9.762;2022-09-09T12:58:53;20.80;99.90
33255;DHT22;19623;52.482;9.762;2022-09-09T13:01:31;21.20;99.90
33255;DHT22;19623;52.482;9.762;2022-09-09T13:03:58;21.40;99.90
33255;DHT22;19623;52.482;9.762;2022-09-09T13:06:31;21.50;99.90
33255;DHT22;19623;52.482;9.762;2022-09-09T13:08:59;21.70;99.90
33255;DHT22;19623;52.482;9.762;2022-09-09T13:13:53;22.20;99.90
33255;DHT22;19623;52.482;9.762;2022-09-09T13:16:27;22.00;99.90
33255;DHT22;19623;52.482;9.762;2022-09-09T13:19:01;21.90;99.90
33255;DHT22;19623;52.482;9.762;2022-09-09T13:21:38;21.70;99.90
33255;DHT22;19623;52.482;9.762;2022-09-09T13:24:06;21.50;99.90
33255;DHT22;19623;52.482;9.762;2022-09-09T13:26:33;21.60;99.90
33255;DHT22;19623;52.482;9.762;2022-09-09T13:29:17;21.70;99.90
33255;DHT22;19623;52.482;9.762;2022-09-09T13:31:43;21.90;99.90
33255;DHT22;19623;52.482;9.762;2022-09-09T13:34:55;21.90;99.90
33255;DHT22;19623;52.482;9.762;2022-09-09T13:37:33;21.70;99.90
33255;DHT22;19623;52.482;9.762;2022-09-09T13:40:00;21.40;99.90
33255;DHT22;19623;52.482;9.762;2022-09-09T13:42:29;21.10;99.90
33255;DHT22;19623;52.482;9.762;2022-09-09T13:44:58;20.90;99.90
33255;DHT22;19623;52.482;9.762;2022-09-09T13:47:43;20.70;99.90
33255;DHT22;19623;52.482;9.762;2022-09-09T13:50:29;20.60;99.90
33255;DHT22;19623;52.482;9.762;2022-09-09T13:52:57;20.50;99.90
33255;DHT22;19623;52.482;9.762;2022-09-09T13:55:27;20.30;99.90
33255;DHT22;19623;52.482;9.762;2022-09-09T13:58:02;20.20;99.90
33255;DHT22;19623;52.482;9.762;2022-09-09T14:00:33;20.20;99.90
33255;DHT22;19623;52.482;9.762;2022-09-09T14:02:59;20.20;99.90
33255;DHT22;19623;52.482;9.762;2022-09-09T14:05:30;20.20;99.90
33255;DHT22;19623;52.482;9.762;2022-09-09T14:07:57;20.20;99.90
33255;DHT22;19623;52.482;9.762;2022-09-09T14:10:23;20.20;99.90
33255;DHT22;19623;52.482;9.762;2022-09-09T14:12:49;20.30;99.90
33255;DHT22;19623;52.482;9.762;2022-09-09T14:15:15;20.50;99.90
33255;DHT22;19623;52.482;9.762;2022-09-09T14:17:42;20.60;99.90
33255;DHT22;19623;52.482;9.762;2022-09-09T14:20:09;20.80;99.90
33255;DHT22;19623;52.482;9.762;2022-09-09T14:22:37;21.00;99.90
33255;DHT22;19623;52.482;9.762;2022-09-09T14:25:05;21.10;99.90
33255;DHT22;19623;52.482;9.762;2022-09-09T14:27:31;21.20;99.90
33255;DHT22;19623;52.482;9.762;2022-09-09T14:29:58;21.30;99.90
33255;DHT22;19623;52.482;9.762;2022-09-09T14:32:25;21.30;99.90
33255;DHT22;19623;52.482;9.762;2022-09-09T14:34:51;21.30;99.90
33255;DHT22;19623;52.482;9.762;2022-09-09T14:37:17;21.30;99.90
33255;DHT22;19623;52.482;9.762;2022-09-09T14:39:44;21.20;99.90
33255;DHT22;19623;52.482;9.762;2022-09-09T14:42:13;21.20;99.90
33255;DHT22;19623;52.482;9.762;2022-09-09T14:44:39;21.20;99.90
33255;DHT22;19623;52.482;9.762;2022-09-09T14:47:06;21.10;99.90
33255;DHT22;19623;52.482;9.762;2022-09-09T14:49:36;21.10;99.90
33255;DHT22;19623;52.482;9.762;2022-09-09T14:52:03;21.30;99.90
33255;DHT22;19623;52.482;9.762;2022-09-09T14:54:28;21.40;99.90
33255;DHT22;19623;52.482;9.762;2022-09-09T14:56:54;21.60;99.90
33255;DHT22;19623;52.482;9.762;2022-09-09T14:59:20;21.70;99.90
33255;DHT22;19623;52.482;9.762;2022-09-09T15:01:45;21.80;99.90
33255;DHT22;19623;52.482;9.762;2022-09-09T15:04:12;21.90;99.90
33255;DHT22;19623;52.482;9.762;2022-09-09T15:06:40;21.90;99.90
33255;DHT22;19623;52.482;9.762;2022-09-09T15:09:09;22.00;99.90
33255;DHT22;19623;52.482;9.762;2022-09-09T15:11:36;22.00;99.90
33255;DHT22;19623;52.482;9.762;2022-09-09T15:14:05;21.90;99.90
33255;DHT22;19623;52.482;9.762;2022-09-09T15:16:31;21.80;99.90
33255;DHT22;19623;52.482;9.762;2022-09-09T15:18:59;21.70;99.90
33255;DHT22;19623;52.482;9.762;2022-09-09T15:21:27;21.60;99.90
33255;DHT22;19623;52.482;9.762;2022-09-09T15:23:54;21.50;99.90
33255;DHT22;19623;52.482;9.762;2022-09-09T15:26:20;21.40;99.90
33255;DHT22;19623;52.482;9.762;2022-09-09T15:28:46;21.40;99.90
33255;DHT22;19623;52.482;9.762;2022-09-09T15:31:14;21.30;99.90
33255;DHT22;19623;52.482;9.762;2022-09-09T15:33:41;21.20;99.90
33255;DHT22;19623;52.482;9.762;2022-09-09T15:36:24;21.10;99.90
33255;DHT22;19623;52.482;9.762;2022-09-09T15:38:50;20.90;99.90
33255;DHT22;19623;52.482;9.762;2022-09-09T15:41:17;20.90;99.90
33255;DHT22;19623;52.482;9.762;2022-09-09T15:43:44;21.00;99.90
33255;DHT22;19623;52.482;9.762;2022-09-09T15:46:32;21.20;99.90
33255;DHT22;19623;52.482;9.762;2022-09-09T15:51:31;21.30;99.90
33255;DHT22;19623;52.482;9.762;2022-09-09T15:53:58;21.10;99.90
33255;DHT22;19623;52.482;9.762;2022-09-09T15:56:25;20.90;99.90
33255;DHT22;19623;52.482;9.762;2022-09-09T15:58:51;20.80;99.90
33255;DHT22;19623;52.482;9.762;2022-09-09T16:01:17;20.60;99.90
33255;DHT22;19623;52.482;9.762;2022-09-09T16:03:44;20.50;99.90
33255;DHT22;19623;52.482;9.762;2022-09-09T16:06:16;20.50;99.90
33255;DHT22;19623;52.482;9.762;2022-09-09T16:08:44;20.50;99.90
33255;DHT22;19623;52.482;9.762;2022-09-09T16:11:16;20.50;99.90
33255;DHT22;19623;52.482;9.762;2022-09-09T16:13:43;20.50;99.90
33255;DHT22;19623;52.482;9.762;2022-09-09T16:16:13;20.40;99.90
33255;DHT22;19623;52.482;9.762;2022-09-09T16:18:41;20.40;99.90
33255;DHT22;19623;52.482;9.762;2022-09-09T16:21:08;20.20;99.90
33255;DHT22;19623;52.482;9.762;2022-09-09T16:23:38;20.20;99.90
33255;DHT22;19623;52.482;9.762;2022-09-09T16:26:04;20.10;99.90
33255;DHT22;19623;52.482;9.762;2022-09-09T16:28:30;20.20;99.90
33255;DHT22;19623;52.482;9.762;2022-09-09T16:30:56;20.20;99.90
33255;DHT22;19623;52.482;9.762;2022-09-09T16:33:23;20.20;99.90
33255;DHT22;19623;52.482;9.762;2022-09-09T16:35:49;20.20;99.90
33255;DHT22;19623;52.482;9.762;2022-09-09T16:38:15;20.30;99.90
33255;DHT22;19623;52.482;9.762;2022-09-09T16:40:41;20.30;99.90
33255;DHT22;19623;52.482;9.762;2022-09-09T16:43:07;20.40;99.90
33255;DHT22;19623;52.482;9.762;2022-09-09T16:45:33;20.40;99.90
33255;DHT22;19623;52.482;9.762;2022-09-09T16:48:01;20.40;99.90
33255;DHT22;19623;52.482;9.762;2022-09-09T16:50:27;20.40;99.90
33255;DHT22;19623;52.482;9.762;2022-09-09T16:52:53;20.30;99.90
33255;DHT22;19623;52.482;9.762;2022-09-09T16:55:19;20.20;99.90
33255;DHT22;19623;52.482;9.762;2022-09-09T16:57:46;20.10;99.90
33255;DHT22;19623;52.482;9.762;2022-09-09T17:00:14;20.00;99.90
33255;DHT22;19623;52.482;9.762;2022-09-09T17:02:42;19.80;99.90
33255;DHT22;19623;52.482;9.762;2022-09-09T17:05:08;19.70;99.90
33255;DHT22;19623;52.482;9.762;2022-09-09T17:07:34;19.50;99.90
33255;DHT22;19623;52.482;9.762;2022-09-09T17:10:01;19.40;99.90
33255;DHT22;19623;52.482;9.762;2022-09-09T17:12:26;19.30;99.90
33255;DHT22;19623;52.482;9.762;2022-09-09T17:14:52;19.20;99.90
33255;DHT22;19623;52.482;9.762;2022-09-09T17:17:18;19.10;99.90
33255;DHT22;19623;52.482;9.762;2022-09-09T17:19:43;19.00;99.90
33255;DHT22;19623;52.482;9.762;2022-09-09T17:22:09;18.90;99.90
33255;DHT22;19623;52.482;9.762;2022-09-09T17:24:35;18.80;99.90
33255;DHT22;19623;52.482;9.762;2022-09-09T17:27:03;18.70;99.90
33255;DHT22;19623;52.482;9.762;2022-09-09T17:29:29;18.60;99.90
33255;DHT22;19623;52.482;9.762;2022-09-09T17:31:55;18.60;99.90
33255;DHT22;19623;52.482;9.762;2022-09-09T17:34:21;18.60;99.90
33255;DHT22;19623;52.482;9.762;2022-09-09T17:36:48;18.50;99.90
33255;DHT22;19623;52.482;9.762;2022-09-09T17:39:13;18.50;99.90
33255;DHT22;19623;52.482;9.762;2022-09-09T17:41:39;18.50;99.90
33255;DHT22;19623;52.482;9.762;2022-09-09T17:44:06;18.40;99.90
33255;DHT22;19623;52.482;9.762;2022-09-09T17:46:40;18.50;99.90
33255;DHT22;19623;52.482;9.762;2022-09-09T17:49:11;18.50;99.90
33255;DHT22;19623;52.482;9.762;2022-09-09T17:51:38;18.60;99.90